sensor_id;sensor_type;location;lat;lon;timestamp;pressure;altitude;pressure_sealevel;temperature;humidity
75157;BME280;63736;50.076;8.198;2023-09-19T00:02:01;98943.69;;;16.45;100.00
75157;BME280;63736;50.076;8.198;2023-09-19T00:04:31;98945.06;;;16.41;100.00
75157;BME280;63736;50.076;8.198;2023-09-19T00:06:57;98953.16;;;16.41;100.00
75157;BME280;63736;50.076;8.198;2023-09-19T00:09:22;98953.81;;;16.43;100.00
75157;BME280;63736;50.076;8.198;2023-09-19T00:11:51;98962.22;;;16.48;100.00
75157;BME280;63736;50.076;8.198;2023-09-19T00:14:16;98953.75;;;16.51;100.00
75157;BME280;63736;50.076;8.198;2023-09-19T00:16:42;98951.53;;;16.55;100.00
75157;BME280;63736;50.076;8.198;2023-09-19T00:19:07;98958.41;;;16.57;100.00
75157;BME280;63736;50.076;8.198;2023-09-19T00:21:34;98964.44;;;16.59;100.00
75157;BME280;63736;50.076;8.198;2023-09-19T00:24:00;98949.97;;;16.60;100.00
75157;BME280;63736;50.076;8.198;2023-09-19T00:26:26;98961.75;;;16.59;100.00
75157;BME280;63736;50.076;8.198;2023-09-19T00:28:54;98954.88;;;16.57;100.00
75157;BME280;63736;50.076;8.198;2023-09-19T00:31:19;98959.63;;;16.55;100.00
75157;BME280;63736;50.076;8.198;2023-09-19T00:33:45;98958.47;;;16.49;100.00
75157;BME280;63736;50.076;8.198;2023-09-19T00:36:11;98960.53;;;16.47;100.00
75157;BME280;63736;50.076;8.198;2023-09-19T00:38:36;98963.41;;;16.45;100.00
75157;BME280;63736;50.076;8.198;2023-09-19T00:41:01;98956.34;;;16.44;100.00
75157;BME280;63736;50.076;8.198;2023-09-19T00:43:27;98962.56;;;16.45;100.00
75157;BME280;63736;50.076;8.198;2023-09-19T00:45:54;98958.03;;;16.45;100.00
75157;BME280;63736;50.076;8.198;2023-09-19T00:48:24;98971.66;;;16.44;100.00
75157;BME280;63736;50.076;8.198;2023-09-19T00:50:50;98977.91;;;16.44;100.00
75157;BME280;63736;50.076;8.198;2023-09-19T00:53:19;98975.03;;;16.46;100.00
75157;BME280;63736;50.076;8.198;2023-09-19T00:55:46;98968.63;;;16.47;100.00
75157;BME280;63736;50.076;8.198;2023-09-19T00:58:12;98973.00;;;16.48;100.00
75157;BME280;63736;50.076;8.198;2023-09-19T01:00:37;98983.59;;;16.49;100.00
75157;BME280;63736;50.076;8.198;2023-09-19T01:03:03;98984.41;;;16.50;100.00
75157;BME280;63736;50.076;8.198;2023-09-19T01:05:29;98988.97;;;16.49;100.00
75157;BME280;63736;50.076;8.198;2023-09-19T01:07:55;98991.00;;;16.47;100.00
75157;BME280;63736;50.076;8.198;2023-09-19T01:10:21;98989.69;;;16.43;100.00
75157;BME280;63736;50.076;8.198;2023-09-19T01:13:21;99025.13;;;16.40;100.00
75157;BME280;63736;50.076;8.198;2023-09-19T01:16:03;99020.91;;;16.38;100.00
75157;BME280;63736;50.076;8.198;2023-09-19T01:18:46;99028.34;;;16.35;100.00
75157;BME280;63736;50.076;8.198;2023-09-19T01:21:23;99026.84;;;16.33;100.00
75157;BME280;63736;50.076;8.198;2023-09-19T01:30:14;99026.91;;;16.16;100.00
75157;BME280;63736;50.076;8.198;2023-09-19T01:32:42;99030.34;;;16.10;100.00
75157;BME280;63736;50.076;8.198;2023-09-19T01:35:08;99035.44;;;16.05;100.00
75157;BME280;63736;50.076;8.198;2023-09-19T01:37:37;99038.63;;;16.00;100.00
75157;BME280;63736;50.076;8.198;2023-09-19T01:40:07;99041.50;;;15.99;100.00
75157;BME280;63736;50.076;8.198;2023-09-19T01:45:33;99048.59;;;15.92;100.00
75157;BME280;63736;50.076;8.198;2023-09-19T01:48:18;99046.09;;;15.90;100.00
75157;BME280;63736;50.076;8.198;2023-09-19T01:53:48;99062.78;;;15.85;100.00
75157;BME280;63736;50.076;8.198;2023-09-19T01:56:23;99065.81;;;15.82;100.00
75157;BME280;63736;50.076;8.198;2023-09-19T01:58:54;99067.16;;;15.78;100.00
75157;BME280;63736;50.076;8.198;2023-09-19T02:01:22;99065.81;;;15.74;100.00
75157;BME280;63736;50.076;8.198;2023-09-19T02:03:50;99069.03;;;15.69;100.00
75157;BME280;63736;50.076;8.198;2023-09-19T02:06:15;99074.94;;;15.65;100.00
75157;BME280;63736;50.076;8.198;2023-09-19T02:08:42;99079.00;;;15.61;100.00
75157;BME280;63736;50.076;8.198;2023-09-19T02:11:08;99075.31;;;15.53;100.00
75157;BME280;63736;50.076;8.198;2023-09-19T02:13:33;99078.19;;;15.44;100.00
75157;BME280;63736;50.076;8.198;2023-09-19T02:15:59;99075.50;;;15.35;100.00
75157;BME280;63736;50.076;8.198;2023-09-19T02:18:25;99078.22;;;15.27;100.00
75157;BME280;63736;50.076;8.198;2023-09-19T02:20:53;99078.06;;;15.20;100.00
75157;BME280;63736;50.076;8.198;2023-09-19T02:23:19;99077.91;;;15.14;100.00
75157;BME280;63736;50.076;8.198;2023-09-19T02:25:54;99084.13;;;15.06;100.00
75157;BME280;63736;50.076;8.198;2023-09-19T02:28:23;99079.41;;;15.00;100.00
75157;BME280;63736;50.076;8.198;2023-09-19T02:30:49;99081.78;;;14.95;100.00
75157;BME280;63736;50.076;8.198;2023-09-19T02:33:15;99082.44;;;14.89;100.00
75157;BME280;63736;50.076;8.198;2023-09-19T02:35:42;99082.09;;;14.83;100.00
75157;BME280;63736;50.076;8.198;2023-09-19T02:38:07;99076.38;;;14.78;100.00
75157;BME280;63736;50.076;8.198;2023-09-19T02:40:33;99078.56;;;14.75;100.00
75157;BME280;63736;50.076;8.198;2023-09-19T02:43:01;99079.72;;;14.72;100.00
75157;BME280;63736;50.076;8.198;2023-09-19T02:45:27;99080.25;;;14.67;100.00
75157;BME280;63736;50.076;8.198;2023-09-19T02:47:52;99080.41;;;14.66;100.00
75157;BME280;63736;50.076;8.198;2023-09-19T02:50:18;99081.56;;;14.63;100.00
75157;BME280;63736;50.076;8.198;2023-09-19T02:52:44;99082.03;;;14.59;100.00
75157;BME280;63736;50.076;8.198;2023-09-19T02:55:11;99076.31;;;14.53;100.00
75157;BME280;63736;50.076;8.198;2023-09-19T02:57:37;99081.53;;;14.47;100.00
75157;BME280;63736;50.076;8.198;2023-09-19T03:00:07;99087.38;;;14.42;100.00
75157;BME280;63736;50.076;8.198;2023-09-19T03:02:33;99089.75;;;14.37;100.00
75157;BME280;63736;50.076;8.198;2023-09-19T03:05:00;99089.41;;;14.32;100.00
75157;BME280;63736;50.076;8.198;2023-09-19T03:07:25;99091.56;;;14.28;100.00
75157;BME280;63736;50.076;8.198;2023-09-19T03:09:50;99098.09;;;14.26;100.00
75157;BME280;63736;50.076;8.198;2023-09-19T03:12:17;99092.03;;;14.24;100.00
75157;BME280;63736;50.076;8.198;2023-09-19T03:14:43;99099.28;;;14.23;100.00
75157;BME280;63736;50.076;8.198;2023-09-19T03:17:08;99097.41;;;14.24;100.00
75157;BME280;63736;50.076;8.198;2023-09-19T03:19:34;99103.66;;;14.24;100.00
75157;BME280;63736;50.076;8.198;2023-09-19T03:21:59;99094.06;;;14.21;100.00
75157;BME280;63736;50.076;8.198;2023-09-19T03:24:25;99104.28;;;14.18;100.00
75157;BME280;63736;50.076;8.198;2023-09-19T03:26:51;99105.13;;;14.18;100.00
75157;BME280;63736;50.076;8.198;2023-09-19T03:29:17;99109.66;;;14.18;100.00
75157;BME280;63736;50.076;8.198;2023-09-19T03:31:43;99112.00;;;14.21;100.00
75157;BME280;63736;50.076;8.198;2023-09-19T03:34:08;99103.78;;;14.23;100.00
75157;BME280;63736;50.076;8.198;2023-09-19T03:36:34;99114.38;;;14.24;100.00
75157;BME280;63736;50.076;8.198;2023-09-19T03:39:00;99115.56;;;14.21;100.00
75157;BME280;63736;50.076;8.198;2023-09-19T03:41:25;99120.06;;;14.21;100.00
75157;BME280;63736;50.076;8.198;2023-09-19T03:43:50;99113.88;;;14.20;100.00
75157;BME280;63736;50.076;8.198;2023-09-19T03:46:15;99121.94;;;14.20;100.00
75157;BME280;63736;50.076;8.198;2023-09-19T03:48:41;99120.94;;;14.21;100.00
75157;BME280;63736;50.076;8.198;2023-09-19T03:51:06;99118.06;;;14.23;100.00
75157;BME280;63736;50.076;8.198;2023-09-19T03:53:31;99124.44;;;14.22;100.00
75157;BME280;63736;50.076;8.198;2023-09-19T03:55:57;99128.13;;;14.21;100.00
75157;BME280;63736;50.076;8.198;2023-09-19T03:58:22;99133.50;;;14.21;100.00
75157;BME280;63736;50.076;8.198;2023-09-19T04:00:48;99131.16;;;14.18;100.00
75157;BME280;63736;50.076;8.198;2023-09-19T04:03:15;99130.47;;;14.16;100.00
75157;BME280;63736;50.076;8.198;2023-09-19T04:05:46;99132.47;;;14.14;100.00
75157;BME280;63736;50.076;8.198;2023-09-19T04:08:12;99130.63;;;14.14;100.00
75157;BME280;63736;50.076;8.198;2023-09-19T04:10:37;99136.34;;;14.19;100.00
75157;BME280;63736;50.076;8.198;2023-09-19T04:13:02;99137.72;;;14.24;100.00
75157;BME280;63736;50.076;8.198;2023-09-19T04:15:29;99141.25;;;14.24;100.00
75157;BME280;63736;50.076;8.198;2023-09-19T04:17:54;99139.72;;;14.21;100.00
75157;BME280;63736;50.076;8.198;2023-09-19T04:20:20;99141.56;;;14.21;100.00
75157;BME280;63736;50.076;8.198;2023-09-19T04:22:47;99139.03;;;14.19;100.00
75157;BME280;63736;50.076;8.198;2023-09-19T04:25:12;99141.56;;;14.21;100.00
75157;BME280;63736;50.076;8.198;2023-09-19T04:27:39;99146.94;;;14.21;100.00
75157;BME280;63736;50.076;8.198;2023-09-19T04:30:06;99141.72;;;14.19;100.00
75157;BME280;63736;50.076;8.198;2023-09-19T04:32:35;99143.88;;;14.16;100.00
75157;BME280;63736;50.076;8.198;2023-09-19T04:35:01;99149.44;;;14.14;100.00
75157;BME280;63736;50.076;8.198;2023-09-19T04:37:30;99146.91;;;14.13;100.00
75157;BME280;63736;50.076;8.198;2023-09-19T04:39:55;99148.59;;;14.14;100.00
75157;BME280;63736;50.076;8.198;2023-09-19T04:42:21;99148.59;;;14.14;100.00
75157;BME280;63736;50.076;8.198;2023-09-19T04:44:46;99149.91;;;14.10;100.00
75157;BME280;63736;50.076;8.198;2023-09-19T04:47:14;99156.59;;;14.05;100.00
75157;BME280;63736;50.076;8.198;2023-09-19T04:49:41;99156.22;;;14.00;100.00
75157;BME280;63736;50.076;8.198;2023-09-19T04:52:06;99154.03;;;13.96;100.00
75157;BME280;63736;50.076;8.198;2023-09-19T04:54:32;99157.03;;;13.93;100.00
75157;BME280;63736;50.076;8.198;2023-09-19T04:56:59;99162.03;;;13.87;100.00
75157;BME280;63736;50.076;8.198;2023-09-19T04:59:24;99160.69;;;13.83;100.00
75157;BME280;63736;50.076;8.198;2023-09-19T05:01:49;99153.13;;;13.79;100.00
75157;BME280;63736;50.076;8.198;2023-09-19T05:04:15;99168.69;;;13.75;100.00
75157;BME280;63736;50.076;8.198;2023-09-19T05:06:40;99170.84;;;13.71;100.00
75157;BME280;63736;50.076;8.198;2023-09-19T05:09:05;99169.47;;;13.67;100.00
75157;BME280;63736;50.076;8.198;2023-09-19T05:11:31;99171.47;;;13.65;100.00
75157;BME280;63736;50.076;8.198;2023-09-19T05:13:56;99173.47;;;13.63;100.00
75157;BME280;63736;50.076;8.198;2023-09-19T05:16:21;99180.00;;;13.61;100.00
75157;BME280;63736;50.076;8.198;2023-09-19T05:18:47;99186.19;;;13.61;100.00
75157;BME280;63736;50.076;8.198;2023-09-19T05:21:12;99184.38;;;13.62;100.00
75157;BME280;63736;50.076;8.198;2023-09-19T05:23:38;99193.09;;;13.64;100.00
75157;BME280;63736;50.076;8.198;2023-09-19T05:26:03;99196.47;;;13.66;100.00
75157;BME280;63736;50.076;8.198;2023-09-19T05:28:32;99195.31;;;13.68;100.00
75157;BME280;63736;50.076;8.198;2023-09-19T05:31:02;99202.06;;;13.73;100.00
75157;BME280;63736;50.076;8.198;2023-09-19T05:33:27;99200.06;;;13.75;100.00
75157;BME280;63736;50.076;8.198;2023-09-19T05:35:53;99198.22;;;13.75;100.00
75157;BME280;63736;50.076;8.198;2023-09-19T05:38:19;99206.97;;;13.77;100.00
75157;BME280;63736;50.076;8.198;2023-09-19T05:40:45;99203.97;;;13.80;100.00
75157;BME280;63736;50.076;8.198;2023-09-19T05:43:11;99206.31;;;13.83;100.00
75157;BME280;63736;50.076;8.198;2023-09-19T05:45:36;99203.16;;;13.88;100.00
75157;BME280;63736;50.076;8.198;2023-09-19T05:48:10;99204.38;;;13.94;100.00
75157;BME280;63736;50.076;8.198;2023-09-19T05:50:41;99210.97;;;13.99;100.00
75157;BME280;63736;50.076;8.198;2023-09-19T05:53:06;99217.38;;;14.07;100.00
75157;BME280;63736;50.076;8.198;2023-09-19T05:55:32;99217.28;;;14.16;100.00
75157;BME280;63736;50.076;8.198;2023-09-19T05:57:58;99211.59;;;14.28;100.00
75157;BME280;63736;50.076;8.198;2023-09-19T06:00:24;99214.00;;;14.39;100.00
75157;BME280;63736;50.076;8.198;2023-09-19T06:02:53;99213.41;;;14.53;100.00
75157;BME280;63736;50.076;8.198;2023-09-19T06:05:21;99212.97;;;14.66;100.00
75157;BME280;63736;50.076;8.198;2023-09-19T06:07:46;99223.25;;;14.79;100.00
75157;BME280;63736;50.076;8.198;2023-09-19T06:10:12;99218.41;;;14.91;100.00
75157;BME280;63736;50.076;8.198;2023-09-19T06:12:38;99222.63;;;15.02;100.00
75157;BME280;63736;50.076;8.198;2023-09-19T06:15:04;99233.44;;;15.18;100.00
75157;BME280;63736;50.076;8.198;2023-09-19T06:17:46;99233.28;;;15.36;100.00
75157;BME280;63736;50.076;8.198;2023-09-19T06:20:12;99235.63;;;15.56;100.00
75157;BME280;63736;50.076;8.198;2023-09-19T06:22:44;99243.75;;;15.81;100.00
75157;BME280;63736;50.076;8.198;2023-09-19T06:25:11;99245.88;;;16.02;100.00
75157;BME280;63736;50.076;8.198;2023-09-19T06:27:38;99252.41;;;16.24;100.00
75157;BME280;63736;50.076;8.198;2023-09-19T06:30:04;99256.56;;;16.43;100.00
75157;BME280;63736;50.076;8.198;2023-09-19T06:32:31;99258.72;;;16.56;100.00
75157;BME280;63736;50.076;8.198;2023-09-19T06:34:56;99254.66;;;16.68;100.00
75157;BME280;63736;50.076;8.198;2023-09-19T06:37:27;99257.44;;;16.83;100.00
75157;BME280;63736;50.076;8.198;2023-09-19T06:39:53;99258.69;;;17.04;100.00
75157;BME280;63736;50.076;8.198;2023-09-19T06:42:18;99264.13;;;17.27;100.00
75157;BME280;63736;50.076;8.198;2023-09-19T06:44:43;99267.75;;;17.43;100.00
75157;BME280;63736;50.076;8.198;2023-09-19T06:47:09;99268.66;;;17.58;100.00
75157;BME280;63736;50.076;8.198;2023-09-19T06:49:36;99269.69;;;17.72;100.00
75157;BME280;63736;50.076;8.198;2023-09-19T06:52:01;99271.47;;;17.80;100.00
75157;BME280;63736;50.076;8.198;2023-09-19T06:54:27;99273.66;;;17.84;100.00
75157;BME280;63736;50.076;8.198;2023-09-19T06:56:56;99281.34;;;17.96;100.00
75157;BME280;63736;50.076;8.198;2023-09-19T06:59:23;99279.34;;;18.13;100.00
75157;BME280;63736;50.076;8.198;2023-09-19T07:01:48;99288.38;;;18.20;100.00
75157;BME280;63736;50.076;8.198;2023-09-19T07:04:14;99289.34;;;18.27;100.00
75157;BME280;63736;50.076;8.198;2023-09-19T07:06:39;99291.28;;;18.33;100.00
75157;BME280;63736;50.076;8.198;2023-09-19T07:09:05;99296.97;;;18.39;100.00
75157;BME280;63736;50.076;8.198;2023-09-19T07:11:31;99307.69;;;18.32;100.00
75157;BME280;63736;50.076;8.198;2023-09-19T07:13:57;99307.41;;;18.27;100.00
75157;BME280;63736;50.076;8.198;2023-09-19T07:16:23;99311.69;;;18.21;100.00
75157;BME280;63736;50.076;8.198;2023-09-19T07:18:54;99314.78;;;18.18;100.00
75157;BME280;63736;50.076;8.198;2023-09-19T07:21:21;99316.25;;;18.21;100.00
75157;BME280;63736;50.076;8.198;2023-09-19T07:23:47;99312.91;;;18.33;100.00
75157;BME280;63736;50.076;8.198;2023-09-19T07:26:12;99319.81;;;18.66;100.00
75157;BME280;63736;50.076;8.198;2023-09-19T07:28:38;99320.97;;;19.02;100.00
75157;BME280;63736;50.076;8.198;2023-09-19T07:31:04;99316.31;;;19.32;100.00
75157;BME280;63736;50.076;8.198;2023-09-19T07:33:30;99321.63;;;19.62;100.00
75157;BME280;63736;50.076;8.198;2023-09-19T07:35:56;99319.22;;;19.89;100.00
75157;BME280;63736;50.076;8.198;2023-09-19T07:38:21;99328.03;;;19.97;100.00
75157;BME280;63736;50.076;8.198;2023-09-19T07:40:47;99328.94;;;20.05;100.00
75157;BME280;63736;50.076;8.198;2023-09-19T07:43:13;99341.34;;;20.14;100.00
75157;BME280;63736;50.076;8.198;2023-09-19T07:45:38;99339.13;;;20.24;100.00
75157;BME280;63736;50.076;8.198;2023-09-19T07:48:04;99344.25;;;20.41;100.00
75157;BME280;63736;50.076;8.198;2023-09-19T07:50:33;99342.91;;;20.58;100.00
75157;BME280;63736;50.076;8.198;2023-09-19T07:52:58;99337.50;;;20.93;100.00
75157;BME280;63736;50.076;8.198;2023-09-19T07:55:24;99335.53;;;21.22;100.00
75157;BME280;63736;50.076;8.198;2023-09-19T07:57:51;99337.06;;;21.38;100.00
75157;BME280;63736;50.076;8.198;2023-09-19T08:00:16;99342.81;;;21.77;100.00
75157;BME280;63736;50.076;8.198;2023-09-19T08:02:43;99347.47;;;22.10;100.00
75157;BME280;63736;50.076;8.198;2023-09-19T08:05:09;99348.09;;;22.52;100.00
75157;BME280;63736;50.076;8.198;2023-09-19T08:07:36;99347.44;;;22.77;100.00
75157;BME280;63736;50.076;8.198;2023-09-19T08:10:02;99349.47;;;22.95;98.65
75157;BME280;63736;50.076;8.198;2023-09-19T08:12:27;99351.72;;;23.18;96.22
75157;BME280;63736;50.076;8.198;2023-09-19T08:14:53;99361.63;;;23.51;92.04
75157;BME280;63736;50.076;8.198;2023-09-19T08:17:18;99352.69;;;23.44;90.02
75157;BME280;63736;50.076;8.198;2023-09-19T08:19:45;99360.97;;;23.63;82.08
75157;BME280;63736;50.076;8.198;2023-09-19T08:22:11;99360.16;;;23.94;82.71
75157;BME280;63736;50.076;8.198;2023-09-19T08:24:36;99361.69;;;24.40;79.17
75157;BME280;63736;50.076;8.198;2023-09-19T08:27:03;99368.75;;;24.73;75.96
75157;BME280;63736;50.076;8.198;2023-09-19T08:29:30;99361.28;;;24.62;73.22
75157;BME280;63736;50.076;8.198;2023-09-19T08:31:59;99366.34;;;24.08;75.97
75157;BME280;63736;50.076;8.198;2023-09-19T08:34:24;99365.25;;;23.90;76.35
75157;BME280;63736;50.076;8.198;2023-09-19T08:36:54;99375.66;;;23.16;79.43
75157;BME280;63736;50.076;8.198;2023-09-19T08:39:23;99378.06;;;22.46;84.36
75157;BME280;63736;50.076;8.198;2023-09-19T08:41:48;99377.78;;;22.00;89.25
75157;BME280;63736;50.076;8.198;2023-09-19T08:44:14;99382.47;;;22.40;89.20
75157;BME280;63736;50.076;8.198;2023-09-19T08:46:43;99381.19;;;22.76;88.30
75157;BME280;63736;50.076;8.198;2023-09-19T08:52:41;99366.31;;;23.83;72.53
75157;BME280;63736;50.076;8.198;2023-09-19T08:55:07;99375.56;;;24.39;66.42
75157;BME280;63736;50.076;8.198;2023-09-19T08:57:37;99379.00;;;24.97;64.05
75157;BME280;63736;50.076;8.198;2023-09-19T09:00:07;99381.97;;;25.14;59.88
75157;BME280;63736;50.076;8.198;2023-09-19T09:02:38;99389.28;;;25.57;56.18
75157;BME280;63736;50.076;8.198;2023-09-19T09:05:07;99385.69;;;25.56;52.30
75157;BME280;63736;50.076;8.198;2023-09-19T09:07:35;99383.66;;;25.15;49.99
75157;BME280;63736;50.076;8.198;2023-09-19T09:10:02;99390.72;;;25.04;48.41
75157;BME280;63736;50.076;8.198;2023-09-19T09:12:29;99378.88;;;25.29;48.26
75157;BME280;63736;50.076;8.198;2023-09-19T09:14:54;99384.81;;;25.75;47.48
75157;BME280;63736;50.076;8.198;2023-09-19T09:17:22;99382.28;;;26.03;46.40
75157;BME280;63736;50.076;8.198;2023-09-19T09:19:47;99380.34;;;26.34;44.93
75157;BME280;63736;50.076;8.198;2023-09-19T09:22:13;99371.31;;;26.46;42.59
75157;BME280;63736;50.076;8.198;2023-09-19T09:24:58;99384.84;;;26.17;42.71
75157;BME280;63736;50.076;8.198;2023-09-19T09:27:26;99389.72;;;26.15;42.62
75157;BME280;63736;50.076;8.198;2023-09-19T09:29:52;99390.00;;;25.95;43.45
75157;BME280;63736;50.076;8.198;2023-09-19T09:32:27;99397.88;;;26.03;42.55
75157;BME280;63736;50.076;8.198;2023-09-19T09:34:58;99394.34;;;25.84;42.88
75157;BME280;63736;50.076;8.198;2023-09-19T09:37:24;99393.16;;;25.49;42.68
75157;BME280;63736;50.076;8.198;2023-09-19T09:39:59;99401.03;;;24.58;43.60
75157;BME280;63736;50.076;8.198;2023-09-19T09:42:44;99388.22;;;24.33;45.36
75157;BME280;63736;50.076;8.198;2023-09-19T09:45:19;99392.78;;;24.14;45.69
75157;BME280;63736;50.076;8.198;2023-09-19T09:47:54;99388.25;;;24.27;46.39
75157;BME280;63736;50.076;8.198;2023-09-19T09:50:30;99396.00;;;24.30;46.00
75157;BME280;63736;50.076;8.198;2023-09-19T09:58:49;99382.19;;;23.92;46.41
75157;BME280;63736;50.076;8.198;2023-09-19T10:01:14;99385.69;;;23.68;47.12
75157;BME280;63736;50.076;8.198;2023-09-19T10:03:42;99385.94;;;23.59;47.21
75157;BME280;63736;50.076;8.198;2023-09-19T10:06:17;99382.28;;;23.34;46.61
75157;BME280;63736;50.076;8.198;2023-09-19T10:09:08;99386.09;;;23.13;47.00
75157;BME280;63736;50.076;8.198;2023-09-19T10:11:44;99385.75;;;22.96;47.16
75157;BME280;63736;50.076;8.198;2023-09-19T10:14:14;99394.56;;;22.84;48.09
75157;BME280;63736;50.076;8.198;2023-09-19T10:16:46;99387.03;;;22.66;48.45
75157;BME280;63736;50.076;8.198;2023-09-19T10:22:01;99394.59;;;22.57;47.85
75157;BME280;63736;50.076;8.198;2023-09-19T10:24:28;99405.47;;;22.57;48.42
75157;BME280;63736;50.076;8.198;2023-09-19T10:26:54;99389.34;;;22.56;47.51
75157;BME280;63736;50.076;8.198;2023-09-19T10:29:21;99397.94;;;22.53;47.69
75157;BME280;63736;50.076;8.198;2023-09-19T10:31:50;99399.63;;;22.60;48.51
75157;BME280;63736;50.076;8.198;2023-09-19T10:34:19;99386.81;;;22.68;47.93
75157;BME280;63736;50.076;8.198;2023-09-19T10:36:46;99392.91;;;22.70;46.82
75157;BME280;63736;50.076;8.198;2023-09-19T10:39:16;99390.78;;;22.72;47.13
75157;BME280;63736;50.076;8.198;2023-09-19T10:41:53;99393.13;;;22.68;47.05
75157;BME280;63736;50.076;8.198;2023-09-19T10:44:25;99384.94;;;22.55;46.96
75157;BME280;63736;50.076;8.198;2023-09-19T10:46:52;99393.56;;;22.45;47.24
75157;BME280;63736;50.076;8.198;2023-09-19T10:49:18;99388.50;;;22.28;46.43
75157;BME280;63736;50.076;8.198;2023-09-19T10:51:44;99393.28;;;22.20;47.14
75157;BME280;63736;50.076;8.198;2023-09-19T10:54:14;99390.56;;;22.13;47.81
75157;BME280;63736;50.076;8.198;2023-09-19T10:56:59;99388.88;;;21.99;48.07
75157;BME280;63736;50.076;8.198;2023-09-19T10:59:25;99381.38;;;21.94;48.20
75157;BME280;63736;50.076;8.198;2023-09-19T11:01:53;99376.09;;;21.92;48.04
75157;BME280;63736;50.076;8.198;2023-09-19T11:04:28;99372.34;;;21.80;47.12
75157;BME280;63736;50.076;8.198;2023-09-19T11:07:11;99366.66;;;21.68;47.33
75157;BME280;63736;50.076;8.198;2023-09-19T11:09:50;99363.94;;;21.68;47.64
75157;BME280;63736;50.076;8.198;2023-09-19T11:14:54;99361.44;;;21.67;47.72
75157;BME280;63736;50.076;8.198;2023-09-19T11:30:36;99332.38;;;21.74;45.91
75157;BME280;63736;50.076;8.198;2023-09-19T11:36:05;99336.28;;;21.51;44.68
75157;BME280;63736;50.076;8.198;2023-09-19T11:41:36;99327.91;;;21.46;45.65
75157;BME280;63736;50.076;8.198;2023-09-19T11:46:29;99335.63;;;21.49;45.40
75157;BME280;63736;50.076;8.198;2023-09-19T11:49:08;99337.09;;;21.45;45.49
75157;BME280;63736;50.076;8.198;2023-09-19T11:51:41;99336.66;;;21.41;45.92
75157;BME280;63736;50.076;8.198;2023-09-19T11:54:11;99336.66;;;21.41;46.75
75157;BME280;63736;50.076;8.198;2023-09-19T11:56:53;99337.47;;;21.42;47.15
75157;BME280;63736;50.076;8.198;2023-09-19T11:59:31;99345.91;;;21.54;47.53
75157;BME280;63736;50.076;8.198;2023-09-19T12:02:04;99336.28;;;21.51;46.79
75157;BME280;63736;50.076;8.198;2023-09-19T12:04:36;99340.03;;;21.43;46.92
75157;BME280;63736;50.076;8.198;2023-09-19T12:07:04;99340.03;;;21.50;47.91
75157;BME280;63736;50.076;8.198;2023-09-19T12:09:31;99342.31;;;21.46;46.41
75157;BME280;63736;50.076;8.198;2023-09-19T12:11:56;99333.56;;;21.51;46.47
75157;BME280;63736;50.076;8.198;2023-09-19T12:14:26;99340.41;;;21.47;46.06
75157;BME280;63736;50.076;8.198;2023-09-19T12:16:53;99335.00;;;21.47;45.96
75157;BME280;63736;50.076;8.198;2023-09-19T12:19:21;99330.41;;;21.48;46.30
75157;BME280;63736;50.076;8.198;2023-09-19T12:22:01;99331.88;;;21.50;46.08
75157;BME280;63736;50.076;8.198;2023-09-19T12:24:30;99330.84;;;21.51;45.89
75157;BME280;63736;50.076;8.198;2023-09-19T12:27:04;99321.63;;;21.52;45.72
75157;BME280;63736;50.076;8.198;2023-09-19T12:29:31;99320.59;;;21.53;45.99
75157;BME280;63736;50.076;8.198;2023-09-19T12:31:58;99324.13;;;21.47;45.71
75157;BME280;63736;50.076;8.198;2023-09-19T12:34:25;99322.47;;;21.46;45.45
75157;BME280;63736;50.076;8.198;2023-09-19T12:37:11;99321.81;;;21.44;45.28
75157;BME280;63736;50.076;8.198;2023-09-19T12:39:41;99323.66;;;21.30;44.99
75157;BME280;63736;50.076;8.198;2023-09-19T12:42:11;99322.81;;;21.23;44.68
75157;BME280;63736;50.076;8.198;2023-09-19T12:44:44;99307.13;;;21.25;44.89
75157;BME280;63736;50.076;8.198;2023-09-19T12:47:17;99304.63;;;21.30;44.14
75157;BME280;63736;50.076;8.198;2023-09-19T12:50:16;99304.25;;;21.33;44.36
75157;BME280;63736;50.076;8.198;2023-09-19T12:52:52;99300.50;;;21.34;44.27
75157;BME280;63736;50.076;8.198;2023-09-19T12:55:25;99299.25;;;21.43;44.44
75157;BME280;63736;50.076;8.198;2023-09-19T13:00:39;99301.56;;;21.46;44.14
75157;BME280;63736;50.076;8.198;2023-09-19T13:03:11;99304.72;;;21.50;43.89
75157;BME280;63736;50.076;8.198;2023-09-19T13:06:02;99308.66;;;21.48;42.96
75157;BME280;63736;50.076;8.198;2023-09-19T13:08:39;99307.22;;;21.52;44.20
75157;BME280;63736;50.076;8.198;2023-09-19T13:13:40;99304.53;;;21.58;43.42
75157;BME280;63736;50.076;8.198;2023-09-19T13:16:06;99311.03;;;21.64;43.23
75157;BME280;63736;50.076;8.198;2023-09-19T13:18:57;99298.72;;;21.75;43.66
75157;BME280;63736;50.076;8.198;2023-09-19T13:21:32;99304.78;;;21.84;43.53
75157;BME280;63736;50.076;8.198;2023-09-19T13:24:18;99299.75;;;21.87;43.13
75157;BME280;63736;50.076;8.198;2023-09-19T13:26:44;99301.66;;;21.80;43.00
75157;BME280;63736;50.076;8.198;2023-09-19T13:29:11;99306.22;;;21.73;43.03
75157;BME280;63736;50.076;8.198;2023-09-19T13:31:36;99296.59;;;21.70;43.28
75157;BME280;63736;50.076;8.198;2023-09-19T13:34:06;99294.31;;;21.74;43.61
75157;BME280;63736;50.076;8.198;2023-09-19T13:36:31;99296.41;;;21.85;43.23
75157;BME280;63736;50.076;8.198;2023-09-19T13:38:57;99284.50;;;21.93;42.27
75157;BME280;63736;50.076;8.198;2023-09-19T13:41:24;99283.69;;;21.99;42.29
75157;BME280;63736;50.076;8.198;2023-09-19T13:43:49;99287.22;;;22.00;42.11
75157;BME280;63736;50.076;8.198;2023-09-19T13:46:14;99290.97;;;22.05;42.12
75157;BME280;63736;50.076;8.198;2023-09-19T13:48:41;99294.34;;;22.01;41.71
75157;BME280;63736;50.076;8.198;2023-09-19T13:51:06;99276.34;;;22.00;41.77
75157;BME280;63736;50.076;8.198;2023-09-19T13:53:31;99277.38;;;21.99;42.02
75157;BME280;63736;50.076;8.198;2023-09-19T13:55:57;99281.56;;;22.08;42.49